Marshfield, MO (65706)

12:04 AM CST on February 07, 2016 (GMT -0600)
Marshfield | | Change Station
CLOSE
Current Station
Personal Weather Station
Location: Marshfield, MO
Elevation: 1473 ft
Nearby Weather Stations

Elev 1473 ft 37.35 °N, 92.90 °W | Updated 8 seconds ago

Clear
Clear
37.1 °F
Feels Like 37 °F
N
1.0
Wind Variable Wind from SSW
Gusts 2.0 mph

Today
High -- | Low -- °F
--% Chance of Precip.
Yesterday
High -- | Low -- °F
Precip. -- in
Pressure 30.20 in
Visibility 10.0 miles
Clouds Clear
Windchill 37 °F
Dew Point 30 °F
Humidity 76%
Rainfall 0.00 in
Snow Depth Not available.
7:09 AM 5:42 PM
Waning Crescent, 2% visible
METAR KSGF 070552Z 23007KT 10SM CLR 03/M02 A3019 RMK AO2 SLP227 T00281022 10089 20017 401221033 55007
Pressure 30.20 in
Visibility 10.0 miles
Clouds Clear
Windchill 37 °F
Dew Point 30 °F
Humidity 76%
Rainfall 0.00 in
Snow Depth Not available.
7:09 AM 5:42 PM
Waning Crescent, 2% visible
METAR KSGF 070552Z 23007KT 10SM CLR 03/M02 A3019 RMK AO2 SLP227 T00281022 10089 20017 401221033 55007

10-Day Weather Forecast

Almanac

Astronomy

Feb. 07, 2016 Rise Set
Actual Time
Civil Twilight
Nautical Twilight
Astronomical Twilight
Moon
Length of Visible Light
Length of Day
Tomorrow will be .
, % of the Moon is Illuminated

Today's Extremes

State Highs State Lows

Community

WunderPhotos

Upload Photos

1,891,172 photos uploaded!

WunderBlog® & News

Nearby

Air Quality

  Air Quality AQ Index Pollutant
Not available.

Snow Depth

Station Depth Elevation

Earthquake Activity

City Distance Mag. Time & Date
Minimum magnitude displayed is 2.5.

Coastal Water Temperatures

Place Temperature

Stations

Nearby Weather Stations

Station Location Temp. Windchill Dew Point Humidity Wind Precip. Elev Updated Type
                   

Watches & Warnings

There are currently no watches in effect.